createdAt,value
2018-10-06T00:00:45.921Z,10.16
2018-10-06T00:05:43.397Z,10.18
2018-10-06T00:10:40.878Z,10.81
2018-10-06T00:15:38.376Z,10.69
2018-10-06T00:20:35.861Z,10.43
2018-10-06T00:25:33.346Z,10.64
2018-10-06T00:30:30.850Z,10.59
2018-10-06T00:35:28.321Z,10.68
2018-10-06T00:40:25.790Z,10.03
2018-10-06T00:45:23.295Z,10.37
2018-10-06T00:50:21.934Z,10.31
2018-10-06T00:55:19.428Z,10.04
2018-10-06T01:00:16.896Z,10.38
2018-10-06T01:05:14.350Z,9.95
2018-10-06T01:10:11.833Z,9.90
2018-10-06T01:15:09.348Z,9.54
2018-10-06T01:20:09.602Z,9.58
2018-10-06T01:25:07.127Z,9.41
2018-10-06T01:30:04.625Z,9.98
2018-10-06T01:35:02.120Z,9.84
2018-10-06T01:39:59.610Z,9.45
2018-10-06T01:44:57.081Z,9.46
2018-10-06T01:49:55.690Z,9.39
2018-10-06T01:54:53.229Z,9.58
2018-10-06T01:59:50.690Z,9.90
2018-10-06T02:04:48.166Z,9.96
2018-10-06T02:09:45.733Z,9.89
2018-10-06T02:14:43.366Z,9.48
2018-10-06T02:19:51.318Z,9.50
2018-10-06T02:24:49.301Z,9.25
2018-10-06T02:29:46.758Z,9.39
2018-10-06T02:34:44.257Z,9.37
2018-10-06T02:39:41.725Z,9.12
2018-10-06T02:44:39.215Z,8.95
2018-10-06T02:54:46.189Z,8.84
2018-10-06T02:59:43.658Z,9.34
2018-10-06T03:04:41.118Z,8.78
2018-10-06T03:09:38.672Z,8.65
2018-10-06T03:14:36.135Z,9.25
2018-10-06T03:19:38.312Z,9.39
2018-10-06T03:24:35.823Z,9.31
2018-10-06T03:29:33.294Z,9.09
2018-10-06T03:34:30.749Z,8.72
2018-10-06T03:39:28.222Z,8.74
2018-10-06T03:44:25.658Z,8.79
2018-10-06T03:49:32.566Z,8.75
2018-10-06T03:54:30.167Z,8.81
2018-10-06T03:59:27.625Z,8.61
2018-10-06T04:04:25.168Z,9.05
2018-10-06T04:09:23.258Z,9.05
2018-10-06T04:14:20.733Z,8.80
2018-10-06T04:19:26.124Z,8.83
2018-10-06T04:24:23.689Z,8.70
2018-10-06T04:29:21.210Z,8.88
2018-10-06T04:34:18.702Z,8.58
2018-10-06T04:39:16.189Z,8.69
2018-10-06T04:44:13.658Z,8.37
2018-10-06T04:49:13.794Z,8.56
2018-10-06T04:54:11.284Z,8.81
2018-10-06T04:59:08.773Z,8.78
2018-10-06T05:04:06.327Z,8.53
2018-10-06T05:09:04.856Z,8.17
2018-10-06T05:14:02.370Z,7.98
2018-10-06T05:19:00.011Z,8.43
2018-10-06T05:23:57.527Z,8.63
2018-10-06T05:28:55.014Z,8.30
2018-10-06T05:33:52.633Z,8.14
2018-10-06T05:38:50.195Z,8.24
2018-10-06T05:43:47.782Z,8.00
2018-10-06T05:48:45.309Z,8.38
2018-10-06T05:53:42.937Z,8.41
2018-10-06T05:58:40.445Z,8.45
2018-10-06T06:03:37.959Z,9.81
2018-10-06T06:08:35.575Z,10.60
2018-10-06T06:13:33.091Z,11.92
2018-10-06T06:18:30.593Z,14.58
2018-10-06T06:23:28.082Z,14.59
2018-10-06T06:28:25.664Z,16.12
2018-10-06T06:33:23.146Z,16.69
2018-10-06T06:38:20.690Z,17.28
2018-10-06T06:43:18.232Z,17.42
2018-10-06T06:48:15.738Z,18.11
2018-10-06T06:53:13.253Z,17.92
2018-10-06T06:58:10.847Z,16.50
2018-10-06T07:03:08.373Z,15.38
2018-10-06T07:08:06.023Z,14.80
2018-10-06T07:13:03.542Z,14.65
2018-10-06T07:18:01.147Z,14.74
2018-10-06T07:22:58.630Z,14.78
2018-10-06T07:27:56.134Z,15.04
2018-10-06T07:32:53.852Z,15.19
2018-10-06T07:37:51.326Z,15.37
2018-10-06T07:42:48.822Z,15.54
2018-10-06T07:47:46.349Z,15.82
2018-10-06T07:52:43.869Z,16.20
2018-10-06T07:57:41.350Z,16.43
2018-10-06T08:02:38.866Z,16.61
2018-10-06T08:07:36.374Z,16.85
2018-10-06T08:12:33.877Z,17.15
2018-10-06T08:17:31.364Z,17.37
2018-10-06T08:22:28.924Z,17.58
2018-10-06T08:27:26.451Z,17.64
2018-10-06T08:32:23.980Z,17.88
2018-10-06T08:37:21.505Z,17.97
2018-10-06T08:42:19.011Z,18.27
2018-10-06T08:47:16.629Z,18.53
2018-10-06T08:52:14.123Z,18.79
2018-10-06T08:57:11.733Z,18.97
2018-10-06T09:02:09.250Z,19.26
2018-10-06T09:07:06.807Z,19.33
2018-10-06T09:12:04.350Z,19.70
2018-10-06T09:17:01.890Z,19.75
2018-10-06T09:21:59.401Z,19.99
2018-10-06T09:26:56.911Z,20.27
2018-10-06T09:31:54.442Z,20.46
2018-10-06T09:36:52.037Z,20.69
2018-10-06T09:41:49.641Z,20.91
2018-10-06T09:46:47.145Z,21.11
2018-10-06T09:51:44.684Z,21.41
2018-10-06T09:56:42.342Z,21.78
2018-10-06T10:01:45.655Z,21.04
2018-10-06T10:06:43.208Z,21.37
2018-10-06T10:11:40.720Z,21.96
2018-10-06T10:16:38.253Z,22.19
2018-10-06T10:21:35.760Z,21.15
2018-10-06T10:26:33.274Z,21.62
2018-10-06T10:31:30.838Z,22.33
2018-10-06T10:36:28.361Z,22.73
2018-10-06T10:41:25.846Z,22.63
2018-10-06T10:46:23.340Z,23.16
2018-10-06T10:51:20.894Z,23.34
2018-10-06T10:56:18.402Z,22.94
2018-10-06T11:01:15.976Z,23.40
2018-10-06T11:06:14.302Z,23.17
2018-10-06T11:11:11.998Z,23.34
2018-10-06T11:16:09.518Z,23.42
2018-10-06T11:21:07.130Z,24.01
2018-10-06T11:26:04.685Z,24.00
2018-10-06T11:31:02.177Z,23.79
2018-10-06T11:35:59.687Z,24.06
2018-10-06T11:40:57.194Z,23.81
2018-10-06T11:45:54.809Z,24.42
2018-10-06T11:50:52.341Z,24.56
2018-10-06T11:55:49.895Z,24.66
2018-10-06T12:00:47.454Z,24.59
2018-10-06T12:05:44.980Z,24.96
2018-10-06T12:10:42.501Z,25.03
2018-10-06T12:15:40.030Z,25.16
2018-10-06T12:20:37.555Z,24.54
2018-10-06T12:25:35.089Z,25.10
2018-10-06T12:30:32.611Z,25.32
2018-10-06T12:35:30.263Z,25.51
2018-10-06T12:40:27.632Z,25.34
2018-10-06T12:45:25.135Z,25.30
2018-10-06T12:50:23.810Z,25.61
2018-10-06T12:55:21.338Z,25.69
2018-10-06T13:00:18.834Z,25.50
2018-10-06T13:05:16.432Z,25.72
2018-10-06T13:10:13.953Z,25.71
2018-10-06T13:15:11.445Z,25.92
2018-10-06T13:20:10.359Z,25.68
2018-10-06T13:25:07.893Z,25.50
2018-10-06T13:30:05.943Z,25.16
2018-10-06T13:35:03.524Z,24.51
2018-10-06T13:40:01.066Z,24.21
2018-10-06T13:44:58.646Z,24.45
2018-10-06T13:49:57.392Z,24.78
2018-10-06T13:54:57.487Z,24.78
2018-10-06T13:59:55.101Z,24.42
2018-10-06T14:04:54.399Z,24.51
2018-10-06T14:09:52.075Z,24.32
2018-10-06T14:14:49.619Z,24.16
2018-10-06T14:19:52.501Z,24.08
2018-10-06T14:24:51.144Z,24.24
2018-10-06T14:29:50.872Z,24.17
2018-10-06T14:34:48.648Z,24.09
2018-10-06T14:39:46.488Z,24.02
2018-10-06T14:44:44.051Z,24.07
2018-10-06T14:49:47.839Z,23.79
2018-10-06T14:54:45.487Z,23.70
2018-10-06T14:59:43.059Z,23.52
2018-10-06T15:04:40.782Z,23.38
2018-10-06T15:09:38.504Z,23.34
2018-10-06T15:14:36.039Z,23.36
2018-10-06T15:19:35.835Z,23.57
2018-10-06T15:24:35.031Z,23.54
2018-10-06T15:29:32.610Z,23.67
2018-10-06T15:34:30.105Z,23.54
2018-10-06T15:39:27.605Z,23.55
2018-10-06T15:44:25.105Z,23.55
2018-10-06T15:49:30.172Z,23.35
2018-10-06T15:54:27.835Z,23.24
2018-10-06T15:59:25.341Z,22.97
2018-10-06T16:04:22.839Z,22.44
2018-10-06T16:09:20.342Z,22.04
2018-10-06T16:14:17.847Z,21.68
2018-10-06T16:19:20.653Z,21.36
2018-10-06T16:24:18.223Z,21.16
2018-10-06T16:29:15.725Z,20.86
2018-10-06T16:34:13.230Z,20.55
2018-10-06T16:39:10.780Z,20.17
2018-10-06T16:44:08.299Z,19.96
2018-10-06T16:49:08.486Z,19.90
2018-10-06T16:54:06.010Z,19.49
2018-10-06T16:59:03.510Z,19.52
2018-10-06T17:04:02.719Z,19.58
2018-10-06T17:09:03.495Z,18.94
2018-10-06T17:14:03.118Z,18.82
2018-10-06T17:19:04.540Z,18.59
2018-10-06T17:24:03.547Z,18.43
2018-10-06T17:29:01.174Z,18.27
2018-10-06T17:33:59.425Z,17.90
2018-10-06T17:38:57.075Z,18.47
2018-10-06T17:43:54.578Z,18.03
2018-10-06T17:48:52.071Z,17.66
2018-10-06T17:53:49.672Z,17.33
2018-10-06T17:58:55.690Z,17.20
2018-10-06T18:03:53.449Z,17.01
2018-10-06T18:08:50.942Z,16.89
2018-10-06T18:13:48.493Z,17.03
2018-10-06T18:18:45.994Z,16.66
2018-10-06T18:23:43.481Z,16.36
2018-10-06T18:28:41.014Z,16.28
2018-10-06T18:33:42.472Z,16.30
2018-10-06T18:38:40.025Z,15.95
2018-10-06T18:43:37.666Z,15.71
2018-10-06T18:48:35.125Z,16.28
2018-10-06T18:53:32.583Z,15.75
2018-10-06T18:58:30.061Z,15.75
2018-10-06T19:03:27.580Z,15.85
2018-10-06T19:08:25.084Z,15.99
2018-10-06T19:13:22.552Z,16.25
2018-10-06T19:18:20.066Z,15.97
2018-10-06T19:23:17.610Z,15.91
2018-10-06T19:28:15.093Z,16.06
2018-10-06T19:33:12.590Z,16.12
2018-10-06T19:38:10.130Z,16.30
2018-10-06T19:43:07.597Z,16.13
2018-10-06T19:48:05.221Z,15.73
2018-10-06T19:53:02.702Z,15.38
2018-10-06T19:58:00.201Z,15.33
2018-10-06T20:02:57.687Z,15.64
2018-10-06T20:07:56.739Z,15.72
2018-10-06T20:12:54.395Z,15.34
2018-10-06T20:17:51.983Z,15.15
2018-10-06T20:22:49.785Z,15.24
2018-10-06T20:27:47.362Z,14.72
2018-10-06T20:32:44.976Z,14.57
2018-10-06T20:37:42.636Z,14.80
2018-10-06T20:42:40.173Z,15.07
2018-10-06T20:47:38.567Z,14.97
2018-10-06T20:52:36.184Z,14.85
2018-10-06T20:57:33.736Z,14.85
2018-10-06T21:02:31.344Z,15.16
2018-10-06T21:07:28.975Z,15.19
2018-10-06T21:12:26.486Z,15.09
2018-10-06T21:17:24.067Z,15.16
2018-10-06T21:22:21.616Z,15.08
2018-10-06T21:27:19.115Z,14.59
2018-10-06T21:32:16.838Z,14.49
2018-10-06T21:37:14.371Z,14.11
2018-10-06T21:42:11.870Z,13.87
2018-10-06T21:47:09.347Z,14.09
2018-10-06T21:52:06.837Z,14.11
2018-10-06T21:57:04.375Z,13.88
2018-10-06T22:02:04.472Z,14.13
2018-10-06T22:07:03.807Z,13.99
2018-10-06T22:12:01.422Z,13.81
2018-10-06T22:16:59.174Z,14.20
2018-10-06T22:21:56.675Z,13.85
2018-10-06T22:26:54.235Z,13.55
2018-10-06T22:31:52.401Z,13.40
2018-10-06T22:36:49.877Z,13.93
2018-10-06T22:41:47.358Z,14.16
2018-10-06T22:46:44.830Z,15.14
2018-10-06T22:51:42.318Z,16.08
2018-10-06T22:56:39.786Z,16.15
2018-10-06T23:01:37.310Z,16.26
2018-10-06T23:06:34.827Z,16.21
2018-10-06T23:11:32.301Z,16.04
2018-10-06T23:16:29.806Z,15.97
2018-10-06T23:21:27.357Z,15.78
2018-10-06T23:26:24.882Z,15.71
2018-10-06T23:31:22.393Z,15.65
2018-10-06T23:36:19.936Z,15.63
2018-10-06T23:41:17.389Z,15.55
2018-10-06T23:46:14.856Z,15.44
2018-10-06T23:51:12.409Z,15.37
2018-10-06T23:56:09.930Z,15.21
